Newton Field (59B)
Jackman, ME
Field Elevation: 1178
Lat: 45°37.38N  Long: 70°14.56W
CTAF/Unicom Freq: 122.9000
   
    
Weather Advisories
2018-02-24   11:30 Z
Altimeter 29.85" Hg
Wind 280° @ 16 KT
Gusts 24 KT
Visibility 10 SM
Ceiling --
Temperature 2° C (36° F)
Dewpoint -2° C (28° F)
Relative Humidity 78%
Density Altitude --
Condensation Altitude 2,800 feet
Wind Chill: -4° C (25° F)
Wind and Runways
Indicated Runway = 31
Headwind = 14 kt
Crosswind = 8 kt
History
 
 
 
More Info
NOAA Forecast
 
 
About Us
Belfort Instrument
 
 
FAA Disclaimer: The data displayed is for advisory purposes only and is not to be used for flight planning or operations. For official data, please call (not available) to hear the current automated AWOS voice message.
  METAR 59B 241130Z AUTO 28016G24KT 10 SM 02/M02 A2985